createdAt,value
2019-04-16T00:00:21.548Z,75.95
2019-04-16T00:01:21.545Z,75.95
2019-04-16T00:02:21.538Z,75.95
2019-04-16T00:03:23.193Z,76.90
2019-04-16T00:04:22.317Z,77.00
2019-04-16T00:05:21.523Z,76.71
2019-04-16T00:06:21.517Z,77.37
2019-04-16T00:07:21.509Z,77.09
2019-04-16T00:08:27.710Z,77.37
2019-04-16T00:09:21.504Z,77.62
2019-04-16T00:10:21.498Z,78.00
2019-04-16T00:11:21.489Z,78.10
2019-04-16T00:12:21.484Z,77.72
2019-04-16T00:13:21.479Z,78.00
2019-04-16T00:14:21.474Z,78.00
2019-04-16T00:15:21.467Z,77.91
2019-04-16T00:16:21.463Z,77.34
2019-04-16T00:17:21.457Z,77.62
2019-04-16T00:18:21.452Z,77.91
2019-04-16T00:19:21.447Z,77.91
2019-04-16T00:20:21.440Z,78.00
2019-04-16T00:21:21.440Z,77.81
2019-04-16T00:22:21.432Z,77.62
2019-04-16T00:23:21.427Z,77.24
2019-04-16T00:24:21.421Z,77.53
2019-04-16T00:25:21.415Z,77.62
2019-04-16T00:26:21.410Z,77.81
2019-04-16T00:27:21.404Z,78.00
2019-04-16T00:28:21.399Z,78.10
2019-04-16T00:29:21.394Z,78.29
2019-04-16T00:30:21.394Z,78.19
2019-04-16T00:31:21.382Z,78.00
2019-04-16T00:32:21.378Z,77.81
2019-04-16T00:33:21.373Z,78.10
2019-04-16T00:34:21.372Z,77.81
2019-04-16T00:35:21.362Z,78.00
2019-04-16T00:36:21.358Z,78.10
2019-04-16T00:37:21.596Z,78.48
2019-04-16T00:38:22.780Z,78.77
2019-04-16T00:39:24.478Z,78.19
2019-04-16T00:40:21.334Z,78.67
2019-04-16T00:41:21.329Z,78.00
2019-04-16T00:42:21.331Z,77.91
2019-04-16T00:43:21.318Z,77.91
2019-04-16T00:44:21.313Z,77.81
2019-04-16T00:45:21.308Z,78.10
2019-04-16T00:46:21.303Z,77.91
2019-04-16T00:47:21.299Z,77.81
2019-04-16T00:48:21.292Z,78.19
2019-04-16T00:49:23.779Z,77.81
2019-04-16T00:50:21.356Z,77.53
2019-04-16T00:51:21.341Z,76.86
2019-04-16T00:52:21.270Z,77.05
2019-04-16T00:53:21.267Z,76.96
2019-04-16T00:54:21.264Z,76.20
2019-04-16T00:55:21.258Z,76.48
2019-04-16T00:56:21.256Z,76.57
2019-04-16T00:57:21.243Z,76.67
2019-04-16T00:58:21.239Z,76.76
2019-04-16T00:59:21.422Z,77.53
2019-04-16T01:00:21.280Z,77.15
2019-04-16T01:01:21.222Z,77.34
2019-04-16T01:02:21.218Z,77.91
2019-04-16T01:03:21.211Z,77.81
2019-04-16T01:04:21.204Z,77.15
2019-04-16T01:05:21.202Z,77.53
2019-04-16T01:06:21.194Z,77.43
2019-04-16T01:07:21.190Z,77.62
2019-04-16T01:08:21.183Z,77.53
2019-04-16T01:09:21.177Z,76.96
2019-04-16T01:10:21.196Z,76.48
2019-04-16T01:11:21.169Z,76.10
2019-04-16T01:12:21.161Z,76.10
2019-04-16T01:13:21.778Z,76.29
2019-04-16T01:14:21.150Z,76.01
2019-04-16T01:15:21.143Z,76.39
2019-04-16T01:16:21.139Z,75.72
2019-04-16T01:17:21.215Z,76.29
2019-04-16T01:18:21.126Z,75.53
2019-04-16T01:19:21.121Z,75.72
2019-04-16T01:20:21.116Z,75.53
2019-04-16T01:21:21.111Z,74.87
2019-04-16T01:22:21.106Z,75.15
2019-04-16T01:23:21.099Z,74.77
2019-04-16T01:24:21.177Z,74.77
2019-04-16T01:25:23.244Z,74.87
2019-04-16T01:26:21.084Z,75.15
2019-04-16T01:27:21.077Z,75.53
2019-04-16T01:28:21.073Z,75.43
2019-04-16T01:29:21.067Z,76.10
2019-04-16T01:30:21.062Z,76.20
2019-04-16T01:31:21.056Z,75.91
2019-04-16T01:32:21.048Z,75.15
2019-04-16T01:33:21.045Z,75.24
2019-04-16T01:34:21.050Z,74.87
2019-04-16T01:35:21.035Z,75.05
2019-04-16T01:36:22.831Z,75.53
2019-04-16T01:37:25.566Z,75.34
2019-04-16T01:38:21.018Z,75.34
2019-04-16T01:39:21.011Z,75.24
2019-04-16T01:40:21.009Z,75.24
2019-04-16T01:41:21.935Z,75.91
2019-04-16T01:42:23.389Z,75.62
2019-04-16T01:43:25.479Z,75.15
2019-04-16T01:44:20.987Z,75.53
2019-04-16T01:45:20.978Z,75.24
2019-04-16T01:46:20.972Z,75.62
2019-04-16T01:47:20.965Z,75.34
2019-04-16T01:48:20.963Z,75.34
2019-04-16T01:49:20.956Z,74.96
2019-04-16T01:50:20.953Z,75.43
2019-04-16T01:51:20.944Z,75.24
2019-04-16T01:52:20.941Z,74.87
2019-04-16T01:53:21.142Z,74.67
2019-04-16T01:54:22.847Z,74.67
2019-04-16T01:55:25.529Z,73.91
2019-04-16T01:56:20.916Z,74.20
2019-04-16T01:57:20.910Z,74.29
2019-04-16T01:58:20.904Z,74.39
2019-04-16T01:59:20.899Z,74.48
2019-04-16T02:00:20.892Z,74.29
2019-04-16T02:01:20.888Z,74.29
2019-04-16T02:02:20.882Z,75.15
2019-04-16T02:03:20.878Z,74.96
2019-04-16T02:04:20.871Z,75.05
2019-04-16T02:05:23.239Z,74.87
2019-04-16T02:06:25.542Z,74.96
2019-04-16T02:07:20.853Z,75.05
2019-04-16T02:08:20.847Z,74.96
2019-04-16T02:09:22.757Z,74.96
2019-04-16T02:10:20.841Z,74.96
2019-04-16T02:11:20.832Z,74.39
2019-04-16T02:12:20.826Z,74.87
2019-04-16T02:13:20.821Z,74.39
2019-04-16T02:14:22.284Z,74.39
2019-04-16T02:15:21.930Z,74.20
2019-04-16T02:16:22.345Z,74.10
2019-04-16T02:17:20.798Z,75.02
2019-04-16T02:18:20.793Z,74.58
2019-04-16T02:19:20.788Z,75.02
2019-04-16T02:20:20.781Z,74.96
2019-04-16T02:21:20.784Z,74.77
2019-04-16T02:22:20.771Z,74.44
2019-04-16T02:23:20.764Z,74.63
2019-04-16T02:24:20.758Z,74.20
2019-04-16T02:25:20.754Z,74.39
2019-04-16T02:26:23.585Z,73.97
2019-04-16T02:27:25.815Z,74.39
2019-04-16T02:28:21.711Z,74.29
2019-04-16T02:29:20.729Z,74.20
2019-04-16T02:30:20.725Z,74.26
2019-04-16T02:31:20.717Z,74.26
2019-04-16T02:32:20.712Z,74.20
2019-04-16T02:33:20.708Z,74.16
2019-04-16T02:34:20.702Z,74.26
2019-04-16T02:35:20.695Z,74.07
2019-04-16T02:36:20.688Z,74.26
2019-04-16T02:37:20.682Z,74.16
2019-04-16T02:38:20.679Z,74.73
2019-04-16T02:39:27.370Z,74.92
2019-04-16T02:40:20.676Z,74.82
2019-04-16T02:41:23.242Z,74.73
2019-04-16T02:42:20.655Z,74.10
2019-04-16T02:43:20.650Z,74.16
2019-04-16T02:44:20.645Z,74.26
2019-04-16T02:45:23.725Z,74.16
2019-04-16T02:46:20.633Z,73.69
2019-04-16T02:47:20.624Z,73.40
2019-04-16T02:48:20.620Z,73.49
2019-04-16T02:49:24.477Z,74.26
2019-04-16T02:50:20.609Z,74.26
2019-04-16T02:51:20.610Z,74.07
2019-04-16T02:52:20.598Z,74.35
2019-04-16T02:53:24.305Z,74.44
2019-04-16T02:54:20.585Z,74.16
2019-04-16T02:55:20.589Z,73.69
2019-04-16T02:56:20.572Z,73.49
2019-04-16T02:57:25.781Z,74.07
2019-04-16T02:58:20.563Z,73.97
2019-04-16T02:59:20.557Z,73.88
2019-04-16T03:00:20.551Z,73.97
2019-04-16T03:01:21.029Z,74.07
2019-04-16T03:02:23.020Z,74.16
2019-04-16T03:03:22.260Z,73.49
2019-04-16T03:04:20.527Z,73.97
2019-04-16T03:05:20.522Z,74.07
2019-04-16T03:06:20.516Z,74.07
2019-04-16T03:07:20.509Z,74.16
2019-04-16T03:08:20.506Z,73.97
2019-04-16T03:09:20.497Z,73.78
2019-04-16T03:10:20.496Z,73.97
2019-04-16T03:11:20.485Z,74.07
2019-04-16T03:12:21.045Z,73.97
2019-04-16T03:13:23.003Z,74.07
2019-04-16T03:14:20.468Z,74.16
2019-04-16T03:15:20.463Z,74.07
2019-04-16T03:16:20.456Z,74.07
2019-04-16T03:17:20.452Z,73.97
2019-04-16T03:18:20.445Z,73.97
2019-04-16T03:19:20.440Z,74.35
2019-04-16T03:20:20.922Z,73.88
2019-04-16T03:21:20.425Z,74.44
2019-04-16T03:22:20.421Z,74.07
2019-04-16T03:23:20.415Z,74.16
2019-04-16T03:24:20.411Z,74.26
2019-04-16T03:25:20.408Z,74.16
2019-04-16T03:26:20.402Z,73.97
2019-04-16T03:27:22.222Z,73.97
2019-04-16T03:28:20.385Z,74.63
2019-04-16T03:29:20.378Z,74.92
2019-04-16T03:30:20.375Z,74.44
2019-04-16T03:31:23.213Z,74.26
2019-04-16T03:32:20.361Z,74.82
2019-04-16T03:33:20.357Z,74.54
2019-04-16T03:34:22.038Z,74.54
2019-04-16T03:35:25.503Z,74.63
2019-04-16T03:36:20.339Z,74.26
2019-04-16T03:37:20.332Z,74.73
2019-04-16T03:38:20.331Z,74.88
2019-04-16T03:39:20.322Z,75.02
2019-04-16T03:40:24.882Z,74.92
2019-04-16T03:41:20.307Z,74.82
2019-04-16T03:42:20.301Z,74.98
2019-04-16T03:43:20.293Z,75.02
2019-04-16T03:44:20.289Z,74.73
2019-04-16T03:45:20.283Z,74.98
2019-04-16T03:46:20.280Z,74.73
2019-04-16T03:47:20.275Z,74.69
2019-04-16T03:48:20.642Z,75.07
2019-04-16T03:49:20.259Z,74.73
2019-04-16T03:50:20.254Z,75.17
2019-04-16T03:51:20.248Z,74.98
2019-04-16T03:52:20.241Z,75.17
2019-04-16T03:53:20.235Z,75.11
2019-04-16T03:54:22.488Z,75.17
2019-04-16T03:55:25.281Z,75.17
2019-04-16T03:56:20.216Z,75.17
2019-04-16T03:57:20.211Z,75.17
2019-04-16T03:58:20.206Z,75.45
2019-04-16T03:59:20.197Z,75.74
2019-04-16T04:00:20.192Z,75.21
2019-04-16T04:01:20.195Z,74.82
2019-04-16T04:02:22.895Z,74.63
2019-04-16T04:03:20.176Z,74.92
2019-04-16T04:04:20.169Z,74.60
2019-04-16T04:05:20.162Z,74.44
2019-04-16T04:06:20.157Z,75.07
2019-04-16T04:07:20.150Z,74.69
2019-04-16T04:08:20.143Z,75.17
2019-04-16T04:09:22.120Z,75.64
2019-04-16T04:10:30.357Z,75.64
2019-04-16T04:11:20.126Z,75.64
2019-04-16T04:12:20.121Z,75.64
2019-04-16T04:13:20.113Z,74.98
2019-04-16T04:14:23.242Z,75.36
2019-04-16T04:15:20.103Z,75.17
2019-04-16T04:16:20.097Z,74.98
2019-04-16T04:17:20.090Z,75.07
2019-04-16T04:18:20.084Z,75.17
2019-04-16T04:19:20.076Z,75.45
2019-04-16T04:20:20.071Z,75.17
2019-04-16T04:21:22.092Z,74.98
2019-04-16T04:22:22.778Z,75.17
2019-04-16T04:23:20.052Z,75.64
2019-04-16T04:24:20.047Z,76.03
2019-04-16T04:25:20.041Z,76.21
2019-04-16T04:26:20.043Z,75.84
2019-04-16T04:27:20.028Z,75.55
2019-04-16T04:28:20.595Z,75.84
2019-04-16T04:29:20.681Z,75.74
2019-04-16T04:30:20.011Z,76.21
2019-04-16T04:31:20.005Z,75.84
2019-04-16T04:32:19.997Z,75.84
2019-04-16T04:33:19.991Z,76.03
2019-04-16T04:34:19.996Z,76.12
2019-04-16T04:35:21.836Z,76.59
2019-04-16T04:36:22.984Z,76.21
2019-04-16T04:37:19.967Z,76.69
2019-04-16T04:38:19.969Z,77.17
2019-04-16T04:39:20.161Z,77.64
2019-04-16T04:40:20.157Z,77.55
2019-04-16T04:41:22.790Z,77.92
2019-04-16T04:42:19.973Z,78.21
2019-04-16T04:43:19.930Z,78.78
2019-04-16T04:44:19.922Z,78.88
2019-04-16T04:45:19.917Z,79.03
2019-04-16T04:46:19.912Z,78.64
2019-04-16T04:47:20.234Z,78.88
2019-04-16T04:48:23.020Z,78.78
2019-04-16T04:49:19.890Z,78.88
2019-04-16T04:50:19.886Z,79.12
2019-04-16T04:51:19.879Z,78.88
2019-04-16T04:52:19.873Z,79.73
2019-04-16T04:53:20.127Z,79.41
2019-04-16T04:54:22.365Z,80.07
2019-04-16T04:55:19.899Z,80.16
2019-04-16T04:56:20.079Z,80.26
2019-04-16T04:57:19.841Z,79.92
2019-04-16T04:58:19.834Z,79.35
2019-04-16T04:59:19.828Z,79.63
2019-04-16T05:00:19.822Z,79.63
2019-04-16T05:01:19.815Z,79.88
2019-04-16T05:02:19.809Z,79.69
2019-04-16T05:03:19.804Z,79.63
2019-04-16T05:04:21.025Z,79.63
2019-04-16T05:05:24.264Z,79.54
2019-04-16T05:06:19.784Z,79.69
2019-04-16T05:07:19.780Z,79.60
2019-04-16T05:08:19.772Z,80.16
2019-04-16T05:09:19.946Z,80.26
2019-04-16T05:10:19.760Z,80.83
2019-04-16T05:11:19.754Z,81.12
2019-04-16T05:12:21.297Z,81.30
2019-04-16T05:13:23.929Z,81.21
2019-04-16T05:14:19.735Z,81.02
2019-04-16T05:15:19.729Z,81.21
2019-04-16T05:16:19.838Z,80.83
2019-04-16T05:17:19.933Z,80.74
2019-04-16T05:18:19.715Z,80.45
2019-04-16T05:19:19.703Z,80.45
2019-04-16T05:20:19.697Z,80.16
2019-04-16T05:21:19.696Z,80.21
2019-04-16T05:22:21.570Z,79.88
2019-04-16T05:23:24.552Z,80.16
2019-04-16T05:24:19.672Z,80.11
2019-04-16T05:25:19.670Z,79.83
2019-04-16T05:26:19.660Z,80.21
2019-04-16T05:27:19.655Z,80.11
2019-04-16T05:28:19.646Z,79.97
2019-04-16T05:29:19.641Z,80.21
2019-04-16T05:30:21.098Z,79.92
2019-04-16T05:31:24.166Z,79.92
2019-04-16T05:32:19.622Z,80.30
2019-04-16T05:33:19.801Z,80.45
2019-04-16T05:34:19.610Z,80.30
2019-04-16T05:35:19.602Z,80.58
2019-04-16T05:36:21.370Z,80.21
2019-04-16T05:37:20.809Z,80.16
2019-04-16T05:38:20.486Z,80.64
2019-04-16T05:39:19.577Z,80.30
2019-04-16T05:40:19.572Z,80.64
2019-04-16T05:41:22.044Z,80.02
2019-04-16T05:42:19.595Z,79.44
2019-04-16T05:43:22.169Z,79.35
2019-04-16T05:44:19.547Z,79.73
2019-04-16T05:45:19.541Z,79.44
2019-04-16T05:46:19.535Z,79.63
2019-04-16T05:47:19.529Z,79.73
2019-04-16T05:48:21.699Z,79.83
2019-04-16T05:49:19.516Z,78.97
2019-04-16T05:50:19.516Z,79.16
2019-04-16T05:51:19.503Z,79.06
2019-04-16T05:52:19.497Z,79.16
2019-04-16T05:53:19.491Z,78.40
2019-04-16T05:54:19.485Z,78.50
2019-04-16T05:55:19.532Z,78.69
2019-04-16T05:56:20.202Z,78.50
2019-04-16T05:57:19.467Z,79.25
2019-04-16T05:58:19.459Z,79.06
2019-04-16T05:59:19.454Z,78.40
2019-04-16T06:00:19.447Z,78.50
2019-04-16T06:01:19.684Z,78.69
2019-04-16T06:02:19.942Z,78.97
2019-04-16T06:03:21.824Z,78.88
2019-04-16T06:04:24.148Z,78.50
2019-04-16T06:05:19.624Z,79.16
2019-04-16T06:06:19.619Z,78.50
2019-04-16T06:07:19.404Z,78.97
2019-04-16T06:08:19.399Z,78.59
2019-04-16T06:09:19.392Z,78.63
2019-04-16T06:10:19.584Z,79.25
2019-04-16T06:11:28.067Z,78.69
2019-04-16T06:12:19.374Z,77.83
2019-04-16T06:13:19.370Z,78.25
2019-04-16T06:14:19.560Z,78.44
2019-04-16T06:15:22.300Z,78.25
2019-04-16T06:16:24.137Z,77.97
2019-04-16T06:17:19.344Z,77.97
2019-04-16T06:18:19.339Z,77.77
2019-04-16T06:19:19.332Z,78.06
2019-04-16T06:20:21.057Z,77.58
2019-04-16T06:21:19.589Z,76.82
2019-04-16T06:22:19.317Z,77.30
2019-04-16T06:23:19.314Z,77.30
2019-04-16T06:24:19.302Z,76.54
2019-04-16T06:25:19.297Z,77.49
2019-04-16T06:26:19.291Z,77.49
2019-04-16T06:27:19.285Z,78.06
2019-04-16T06:28:19.278Z,77.97
2019-04-16T06:29:19.272Z,77.87
2019-04-16T06:30:19.268Z,77.87
2019-04-16T06:31:19.261Z,77.62
2019-04-16T06:32:19.255Z,77.53
2019-04-16T06:33:19.250Z,77.62
2019-04-16T06:34:19.244Z,77.91
2019-04-16T06:35:19.237Z,76.86
2019-04-16T06:36:19.232Z,76.67
2019-04-16T06:37:21.816Z,76.96
2019-04-16T06:38:19.218Z,76.76
2019-04-16T06:39:19.213Z,76.67
2019-04-16T06:40:19.208Z,77.15
2019-04-16T06:41:19.426Z,76.86
2019-04-16T06:42:22.302Z,77.62
2019-04-16T06:43:19.190Z,77.34
2019-04-16T06:44:19.187Z,76.67
2019-04-16T06:45:19.179Z,77.24
2019-04-16T06:46:19.173Z,76.20
2019-04-16T06:47:19.168Z,76.10
2019-04-16T06:48:19.163Z,76.39
2019-04-16T06:49:19.245Z,76.96
2019-04-16T06:50:30.674Z,76.96
2019-04-16T06:51:19.147Z,76.29
2019-04-16T06:52:19.139Z,75.91
2019-04-16T06:53:19.497Z,76.39
2019-04-16T06:54:19.128Z,76.29
2019-04-16T06:55:19.123Z,75.72
2019-04-16T06:56:20.648Z,74.96
2019-04-16T06:57:19.112Z,75.72
2019-04-16T06:58:19.106Z,75.67
2019-04-16T06:59:19.100Z,74.90
2019-04-16T07:00:19.095Z,75.09
2019-04-16T07:01:22.065Z,75.38
2019-04-16T07:02:19.116Z,74.99
2019-04-16T07:03:19.078Z,75.09
2019-04-16T07:04:19.072Z,75.09
2019-04-16T07:05:19.072Z,74.90
2019-04-16T07:06:19.336Z,75.28
2019-04-16T07:07:21.678Z,75.19
2019-04-16T07:08:19.886Z,74.62
2019-04-16T07:09:23.492Z,74.52
2019-04-16T07:10:19.042Z,74.33
2019-04-16T07:11:19.036Z,74.14
2019-04-16T07:12:19.167Z,74.24
2019-04-16T07:13:19.209Z,74.33
2019-04-16T07:14:19.021Z,74.33
2019-04-16T07:15:22.814Z,73.66
2019-04-16T07:16:19.011Z,72.71
2019-04-16T07:17:19.003Z,73.10
2019-04-16T07:18:20.696Z,73.38
2019-04-16T07:19:18.994Z,73.32
2019-04-16T07:20:18.987Z,72.75
2019-04-16T07:21:18.981Z,72.17
2019-04-16T07:22:21.244Z,72.08
2019-04-16T07:23:24.120Z,72.65
2019-04-16T07:24:22.429Z,72.75
2019-04-16T07:25:19.133Z,71.89
2019-04-16T07:26:18.962Z,72.17
2019-04-16T07:27:20.216Z,71.98
2019-04-16T07:28:19.188Z,71.51
2019-04-16T07:29:18.985Z,71.61
2019-04-16T07:30:20.809Z,71.51
2019-04-16T07:31:32.686Z,71.70
2019-04-16T07:32:18.996Z,71.22
2019-04-16T07:33:18.921Z,70.84
2019-04-16T07:34:18.916Z,71.22
2019-04-16T07:35:18.910Z,70.50
2019-04-16T07:36:18.906Z,70.27
2019-04-16T07:37:18.901Z,70.12
2019-04-16T07:38:18.896Z,70.31
2019-04-16T07:39:28.655Z,70.31
2019-04-16T07:40:18.886Z,69.74
2019-04-16T07:41:18.881Z,70.21
2019-04-16T07:42:22.241Z,69.54
2019-04-16T07:43:18.869Z,69.35
2019-04-16T07:44:18.866Z,69.93
2019-04-16T07:45:18.864Z,70.40
2019-04-16T07:46:18.857Z,70.31
2019-04-16T07:47:20.048Z,69.93
2019-04-16T07:48:22.644Z,69.64
2019-04-16T07:49:18.844Z,68.98
2019-04-16T07:50:18.838Z,68.69
2019-04-16T07:51:18.832Z,68.69
2019-04-16T07:52:18.829Z,69.07
2019-04-16T07:53:18.824Z,69.54
2019-04-16T07:54:21.564Z,69.39
2019-04-16T07:55:18.814Z,69.29
2019-04-16T07:56:18.810Z,68.53
2019-04-16T07:57:18.805Z,68.91
2019-04-16T07:58:18.802Z,68.63
2019-04-16T07:59:18.794Z,69.01
2019-04-16T08:00:18.792Z,69.58
2019-04-16T08:01:18.788Z,68.91
2019-04-16T08:02:21.435Z,69.01
2019-04-16T08:03:18.778Z,68.66
2019-04-16T08:04:28.315Z,68.38
2019-04-16T08:05:18.770Z,68.66
2019-04-16T08:06:18.765Z,68.09
2019-04-16T08:07:20.593Z,67.99
2019-04-16T08:08:18.912Z,68.09
2019-04-16T08:09:18.752Z,67.71
2019-04-16T08:10:18.749Z,67.90
2019-04-16T08:11:18.747Z,67.14
2019-04-16T08:12:29.885Z,67.42
2019-04-16T08:13:18.743Z,66.94
2019-04-16T08:14:18.733Z,66.63
2019-04-16T08:15:18.726Z,66.63
2019-04-16T08:16:19.075Z,66.63
2019-04-16T08:17:18.720Z,66.85
2019-04-16T08:18:18.787Z,66.66
2019-04-16T08:19:18.709Z,66.38
2019-04-16T08:20:21.004Z,66.66
2019-04-16T08:21:22.022Z,66.31
2019-04-16T08:22:18.756Z,66.02
2019-04-16T08:23:19.657Z,65.26
2019-04-16T08:24:24.266Z,65.48
2019-04-16T08:25:18.689Z,64.75
2019-04-16T08:26:18.700Z,63.54
2019-04-16T08:27:19.494Z,60.90
2019-04-16T08:28:18.680Z,59.49
2019-04-16T08:29:18.675Z,59.01
2019-04-16T08:30:18.675Z,57.90
2019-04-16T08:31:18.672Z,56.34
2019-04-16T08:32:18.672Z,55.69
2019-04-16T08:33:18.680Z,54.79
2019-04-16T08:34:18.672Z,53.07
2019-04-16T08:35:18.674Z,52.62
2019-04-16T08:36:18.674Z,52.81
2019-04-16T08:37:18.687Z,52.62
2019-04-16T08:38:18.679Z,52.64
2019-04-16T08:39:18.681Z,51.97
2019-04-16T08:40:18.688Z,51.56
2019-04-16T08:41:21.116Z,51.97
2019-04-16T08:42:21.547Z,51.59
2019-04-16T08:43:18.698Z,51.14
2019-04-16T08:44:18.701Z,50.53
2019-04-16T08:45:20.586Z,49.98
2019-04-16T08:47:18.717Z,50.01
2019-04-16T08:48:18.921Z,49.60
2019-04-16T08:49:22.136Z,50.27
2019-04-16T08:50:18.737Z,50.46
2019-04-16T08:51:29.664Z,50.56
2019-04-16T08:52:18.747Z,50.20
2019-04-16T08:53:18.758Z,49.88
2019-04-16T08:54:18.898Z,50.05
2019-04-16T08:55:20.529Z,50.53
2019-04-16T08:56:18.774Z,51.14
2019-04-16T08:57:18.786Z,51.32
2019-04-16T08:58:18.795Z,50.20
2019-04-16T08:59:18.797Z,49.38
2019-04-16T09:00:18.809Z,50.08
2019-04-16T09:01:23.267Z,49.55
2019-04-16T09:02:18.824Z,47.82
2019-04-16T09:03:18.834Z,47.13
2019-04-16T09:04:18.842Z,47.58
2019-04-16T09:05:18.849Z,49.19
2019-04-16T09:06:18.858Z,49.50
2019-04-16T09:07:20.016Z,49.82
2019-04-16T09:08:21.762Z,48.47
2019-04-16T09:09:24.099Z,47.99
2019-04-16T09:10:21.622Z,47.80
2019-04-16T09:11:23.447Z,47.87
2019-04-16T09:12:18.980Z,48.02
2019-04-16T09:13:18.921Z,48.21
2019-04-16T09:14:21.015Z,47.87
2019-04-16T09:15:18.939Z,48.25
2019-04-16T09:16:18.949Z,49.36
2019-04-16T09:17:18.958Z,48.02
2019-04-16T09:18:18.967Z,48.21
2019-04-16T09:19:18.978Z,47.25
2019-04-16T09:20:18.987Z,48.28
2019-04-16T09:21:18.997Z,48.09
2019-04-16T09:22:19.015Z,46.96
2019-04-16T09:23:19.018Z,46.67
2019-04-16T09:24:19.028Z,46.65
2019-04-16T09:25:19.039Z,48.21
2019-04-16T09:26:22.833Z,47.75
2019-04-16T09:27:19.056Z,46.26
2019-04-16T09:28:25.586Z,44.89
2019-04-16T09:29:19.077Z,45.45
2019-04-16T09:30:19.086Z,46.14
2019-04-16T09:31:22.038Z,45.08
2019-04-16T09:32:19.105Z,44.82
2019-04-16T09:33:19.116Z,44.51
2019-04-16T09:34:19.127Z,44.46
2019-04-16T09:35:20.346Z,45.71
2019-04-16T09:36:19.148Z,46.05
2019-04-16T09:37:19.160Z,46.96
2019-04-16T09:38:19.169Z,47.03
2019-04-16T09:39:20.383Z,47.15
2019-04-16T09:40:19.190Z,47.08
2019-04-16T09:41:19.198Z,46.02
2019-04-16T09:42:19.210Z,45.90
2019-04-16T09:43:19.231Z,46.26
2019-04-16T09:44:19.229Z,47.13
2019-04-16T09:45:19.246Z,48.30
2019-04-16T09:46:25.489Z,46.89
2019-04-16T09:47:19.467Z,47.63
2019-04-16T09:48:19.273Z,48.74
2019-04-16T09:49:19.280Z,49.84
2019-04-16T09:50:19.290Z,49.46
2019-04-16T09:51:20.573Z,48.40
2019-04-16T09:52:19.968Z,48.33
2019-04-16T09:53:32.245Z,48.04
2019-04-16T09:54:19.353Z,47.39
2019-04-16T09:55:19.631Z,45.97
2019-04-16T09:56:19.669Z,44.79
2019-04-16T09:57:19.362Z,44.22
2019-04-16T09:58:21.755Z,44.89
2019-04-16T09:59:19.380Z,45.92
2019-04-16T10:00:20.428Z,46.50
2019-04-16T10:01:19.455Z,46.43
2019-04-16T10:02:19.459Z,45.95
2019-04-16T10:03:19.422Z,45.61
2019-04-16T10:04:19.431Z,44.35
2019-04-16T10:05:19.441Z,44.35
2019-04-16T10:06:19.452Z,44.17
2019-04-16T10:07:19.461Z,45.18
2019-04-16T10:08:19.486Z,45.90
2019-04-16T10:09:21.719Z,45.20
2019-04-16T10:10:19.504Z,44.48
2019-04-16T10:11:19.788Z,43.24
2019-04-16T10:12:19.530Z,42.57
2019-04-16T10:13:30.078Z,43.49
2019-04-16T10:14:19.629Z,43.32
2019-04-16T10:15:19.543Z,43.32
2019-04-16T10:17:32.947Z,43.47
2019-04-16T10:18:35.263Z,44.65
2019-04-16T10:19:32.977Z,43.92
2019-04-16T10:20:32.978Z,43.80
2019-04-16T10:21:32.989Z,43.76
2019-04-16T10:22:33.008Z,45.08
2019-04-16T10:23:33.023Z,44.65
2019-04-16T10:24:33.013Z,43.76
2019-04-16T10:25:33.626Z,44.26
2019-04-16T10:26:33.051Z,44.34
2019-04-16T10:27:33.062Z,44.14
2019-04-16T10:28:33.935Z,44.09
2019-04-16T10:29:33.087Z,43.63
2019-04-16T10:30:33.089Z,43.47
2019-04-16T10:31:33.086Z,45.03
2019-04-16T10:32:33.108Z,45.05
2019-04-16T10:33:33.101Z,44.24
2019-04-16T10:34:36.074Z,44.17
2019-04-16T10:35:33.121Z,43.40
2019-04-16T10:36:37.148Z,44.09
2019-04-16T10:37:33.164Z,43.15
2019-04-16T10:38:33.151Z,43.37
2019-04-16T10:39:33.183Z,42.40
2019-04-16T10:40:33.184Z,43.23
2019-04-16T10:41:33.179Z,44.58
2019-04-16T10:42:33.216Z,45.81
2019-04-16T10:43:43.809Z,46.45
2019-04-16T10:44:33.233Z,46.84
2019-04-16T10:45:33.221Z,47.87
2019-04-16T10:46:33.237Z,49.29
2019-04-16T10:48:33.240Z,49.55
2019-04-16T10:49:33.261Z,48.61
2019-04-16T10:50:33.267Z,47.08
2019-04-16T10:51:33.263Z,46.89
2019-04-16T10:52:33.271Z,47.25
2019-04-16T10:53:33.305Z,48.21
2019-04-16T10:54:33.777Z,47.85
2019-04-16T10:55:33.321Z,48.04
2019-04-16T10:56:33.298Z,47.39
2019-04-16T10:57:33.330Z,47.05
2019-04-16T10:58:33.331Z,45.51
2019-04-16T10:59:33.347Z,45.03
2019-04-16T11:00:33.340Z,44.45
2019-04-16T11:01:35.008Z,44.99
2019-04-16T11:02:33.352Z,45.73
2019-04-16T11:03:34.805Z,47.25
2019-04-16T11:04:33.357Z,48.57
2019-04-16T11:05:33.379Z,48.47
2019-04-16T11:06:33.367Z,49.52
2019-04-16T11:07:33.398Z,49.15
2019-04-16T11:08:33.383Z,49.72
2019-04-16T11:10:34.198Z,49.84
2019-04-16T11:11:33.394Z,49.24
2019-04-16T11:12:33.401Z,48.47
2019-04-16T11:13:33.407Z,48.85
2019-04-16T11:14:33.714Z,49.46
2019-04-16T11:15:33.420Z,48.76
2019-04-16T11:16:35.908Z,49.31
2019-04-16T11:17:33.445Z,50.05
2019-04-16T11:18:33.441Z,50.08
2019-04-16T11:19:33.535Z,49.98
2019-04-16T11:20:33.460Z,50.20
2019-04-16T11:21:33.451Z,50.49
2019-04-16T11:22:33.448Z,50.01
2019-04-16T11:23:33.469Z,50.20
2019-04-16T11:24:33.457Z,50.01
2019-04-16T11:25:33.462Z,50.08
2019-04-16T11:26:33.552Z,49.69
2019-04-16T11:27:33.472Z,50.46
2019-04-16T11:28:33.542Z,50.84
2019-04-16T11:29:33.540Z,50.49
2019-04-16T11:30:33.489Z,49.74
2019-04-16T11:31:33.576Z,49.72
2019-04-16T11:32:33.490Z,49.52
2019-04-16T11:33:33.494Z,49.62
2019-04-16T11:34:33.494Z,50.01
2019-04-16T11:35:33.503Z,49.62
2019-04-16T11:36:33.537Z,49.43
2019-04-16T11:37:36.223Z,49.82
2019-04-16T11:38:33.553Z,49.15
2019-04-16T11:39:33.509Z,50.10
2019-04-16T11:40:33.538Z,49.98
2019-04-16T11:41:33.552Z,49.82
2019-04-16T11:42:33.522Z,49.91
2019-04-16T11:43:33.530Z,49.62
2019-04-16T11:44:33.524Z,50.10
2019-04-16T11:45:33.595Z,50.10
2019-04-16T11:46:33.545Z,50.23
2019-04-16T11:47:34.226Z,49.91
2019-04-16T11:48:37.194Z,49.74
2019-04-16T11:49:33.577Z,49.65
2019-04-16T11:50:35.967Z,48.76
2019-04-16T11:51:33.579Z,49.26
2019-04-16T11:52:33.585Z,50.25
2019-04-16T11:53:33.564Z,49.38
2019-04-16T11:54:33.596Z,48.81
2019-04-16T11:55:33.582Z,49.29
2019-04-16T11:56:33.581Z,48.49
2019-04-16T11:57:34.076Z,48.40
2019-04-16T11:58:33.557Z,48.88
2019-04-16T11:59:33.558Z,49.26
2019-04-16T12:00:33.563Z,49.17
2019-04-16T12:01:33.576Z,48.57
2019-04-16T12:02:33.689Z,49.36
2019-04-16T12:03:36.520Z,49.17
2019-04-16T12:04:33.577Z,48.40
2019-04-16T12:05:33.613Z,48.43
2019-04-16T12:06:33.599Z,47.66
2019-04-16T12:07:33.575Z,46.89
2019-04-16T12:08:33.611Z,47.17
2019-04-16T12:09:33.618Z,46.98
2019-04-16T12:10:33.611Z,46.69
2019-04-16T12:11:33.599Z,47.46
2019-04-16T12:12:33.613Z,48.33
2019-04-16T12:13:33.635Z,47.92
2019-04-16T12:14:34.885Z,48.79
2019-04-16T12:15:33.590Z,48.79
2019-04-16T12:16:33.643Z,48.30
2019-04-16T12:17:36.244Z,47.63
2019-04-16T12:18:33.602Z,47.05
2019-04-16T12:19:33.598Z,46.86
2019-04-16T12:20:33.602Z,46.98
2019-04-16T12:21:33.644Z,46.67
2019-04-16T12:22:33.637Z,46.21
2019-04-16T12:23:33.651Z,46.59
2019-04-16T12:24:33.634Z,47.36
2019-04-16T12:25:33.609Z,46.89
2019-04-16T12:26:33.612Z,47.56
2019-04-16T12:27:33.623Z,46.98
2019-04-16T12:28:33.637Z,47.85
2019-04-16T12:29:33.632Z,46.89
2019-04-16T12:30:33.682Z,46.89
2019-04-16T12:31:33.618Z,46.41
2019-04-16T12:32:33.662Z,46.69
2019-04-16T12:33:33.728Z,46.12
2019-04-16T12:34:33.671Z,45.92
2019-04-16T12:35:34.723Z,45.73
2019-04-16T12:36:33.662Z,45.56
2019-04-16T12:37:37.390Z,45.76
2019-04-16T12:38:33.685Z,44.70
2019-04-16T12:39:35.788Z,44.60
2019-04-16T12:40:33.645Z,44.70
2019-04-16T12:41:33.653Z,45.08
2019-04-16T12:42:33.673Z,44.99
2019-04-16T12:43:33.650Z,44.79
2019-04-16T12:44:45.088Z,43.91
2019-04-16T12:45:33.643Z,44.20
2019-04-16T12:46:33.690Z,44.48
2019-04-16T12:47:33.662Z,44.96
2019-04-16T12:48:33.691Z,44.68
2019-04-16T12:49:33.649Z,45.25
2019-04-16T12:50:33.652Z,45.08
2019-04-16T12:51:33.687Z,45.06
2019-04-16T12:52:33.681Z,44.48
2019-04-16T12:53:36.253Z,44.77
2019-04-16T12:54:33.659Z,44.60
2019-04-16T12:55:33.694Z,44.51
2019-04-16T12:56:33.661Z,44.82